Time;durP1;ratioP1;P1;durP2;ratioP2;P2;SDS_P1;SDS_P2;PMS_P1;PMS_P2;Temp;Humidity;BMP_temperature;BMP_pressure;BME280_temperature;BME280_humidity;BME280_pressure;Samples;Min_cycle;Max_cycle;Signal;HPM_P1;HPM_P2
2021/09/13 00:01:00;;;;;;;9.73;8.63;;;;;;;16.27;82.62;96571.75;1676227;84;21060;-83
2021/09/13 00:03:25;;;;;;;8.73;7.83;;;;;;;16.23;82.82;96576.62;1661666;85;21456;-83
2021/09/13 00:05:51;;;;;;;8.18;7.37;;;;;;;16.20;82.86;96580.47;1669339;84;21002;-82
2021/09/13 00:08:17;;;;;;;9.63;7.28;;;;;;;16.19;82.89;96580.69;1668936;85;21060;-83
2021/09/13 00:10:45;;;;;;;8.93;7.97;;;;;;;16.19;82.89;96580.69;1688966;84;20964;-83
2021/09/13 00:13:11;;;;;;;8.50;7.70;;;;;;;16.24;82.82;96582.16;1684049;84;21016;-83
2021/09/13 00:15:37;;;;;;;9.00;8.10;;;;;;;16.25;82.66;96576.41;1688238;84;21013;-83
2021/09/13 00:18:03;;;;;;;9.23;8.33;;;;;;;16.23;82.61;96576.62;1686985;85;21075;-83
2021/09/13 00:20:29;;;;;;;10.55;8.58;;;;;;;16.20;82.86;96576.53;1674924;84;20988;-83
2021/09/13 00:22:56;;;;;;;9.30;8.13;;;;;;;16.18;82.98;96579.08;1670852;84;21440;-83
2021/09/13 00:25:21;;;;;;;8.68;7.83;;;;;;;16.15;83.05;96576.89;1657893;85;21013;-83
2021/09/13 00:27:48;;;;;;;8.33;7.55;;;;;;;16.14;82.96;96573.47;1669990;84;21068;-83
2021/09/13 00:30:14;;;;;;;8.50;7.70;;;;;;;16.14;83.07;96581.33;1665022;84;21134;-82
2021/09/13 00:32:40;;;;;;;9.73;7.47;;;;;;;16.14;83.21;96573.97;1664853;85;21090;-83
2021/09/13 00:35:06;;;;;;;9.35;8.08;;;;;;;16.12;83.25;96574.69;1672378;84;21043;-83
2021/09/13 00:37:32;;;;;;;9.00;8.10;;;;;;;16.10;83.42;96574.88;1675661;84;21031;-83
2021/09/13 00:39:58;;;;;;;9.00;7.75;;;;;;;16.08;83.47;96574.29;1666278;84;21070;-83
2021/09/13 00:42:24;;;;;;;9.78;7.37;;;;;;;16.08;83.52;96576.11;1676956;84;21063;-83
2021/09/13 00:44:50;;;;;;;7.95;7.15;;;;;;;16.11;83.47;96577.83;1680479;84;20996;-83
2021/09/13 00:47:15;;;;;;;7.70;7.00;;;;;;;16.12;83.27;96574.19;1669927;85;21402;-83
2021/09/13 00:49:42;;;;;;;8.80;8.00;;;;;;;16.14;83.16;96578.70;1670438;83;21029;-83
2021/09/13 00:52:08;;;;;;;9.15;7.58;;;;;;;16.16;83.12;96575.36;1695455;83;21363;-82
2021/09/13 00:54:34;;;;;;;9.33;8.53;;;;;;;16.17;82.94;96578.28;1704551;83;21403;-82
2021/09/13 00:56:59;;;;;;;9.10;8.15;;;;;;;16.16;83.01;96575.36;1712898;83;21052;-83
2021/09/13 00:59:25;;;;;;;8.83;7.92;;;;;;;16.11;83.32;96571.27;1690478;83;21066;-83
2021/09/13 01:01:51;;;;;;;8.90;6.97;;;;;;;16.11;83.31;96569.16;1692342;83;21123;-83
2021/09/13 01:04:17;;;;;;;8.90;8.10;;;;;;;16.11;83.23;96568.65;1690006;84;21104;-83
2021/09/13 01:06:43;;;;;;;7.90;7.15;;;;;;;16.11;83.20;96567.84;1696121;83;21493;-82
2021/09/13 01:09:09;;;;;;;8.43;7.60;;;;;;;16.11;83.27;96562.61;1725511;83;21037;-83
2021/09/13 01:11:35;;;;;;;8.85;8.05;;;;;;;16.13;83.38;96561.88;1659707;85;21112;-83
2021/09/13 01:14:01;;;;;;;11.40;8.50;;;;;;;16.16;83.56;96566.19;1682403;84;21030;-82
2021/09/13 01:16:27;;;;;;;8.88;7.97;;;;;;;16.14;83.49;96566.91;1686929;84;20976;-83
2021/09/13 01:18:52;;;;;;;10.63;8.73;;;;;;;16.06;83.97;96571.59;1684265;84;21426;-83
2021/09/13 01:21:18;;;;;;;8.73;7.55;;;;;;;16.06;83.97;96571.59;1673628;84;20991;-83
2021/09/13 01:23:44;;;;;;;9.25;8.13;;;;;;;16.03;83.68;96572.81;1690801;83;21116;-83
2021/09/13 01:26:09;;;;;;;8.70;7.80;;;;;;;16.01;83.65;96576.16;1692784;83;21033;-83
2021/09/13 01:28:35;;;;;;;9.85;8.85;;;;;;;15.99;83.73;96570.33;1703625;83;20991;-83
2021/09/13 01:31:01;;;;;;;8.98;8.08;;;;;;;15.99;83.88;96570.84;1697273;83;21054;-82
2021/09/13 01:33:27;;;;;;;9.55;8.63;;;;;;;15.97;84.00;96571.56;1673518;84;20980;-83
2021/09/13 01:35:53;;;;;;;8.90;8.00;;;;;;;15.96;84.08;96569.45;1660272;84;21410;-83
2021/09/13 01:38:23;;;;;;;9.85;8.00;;;;;;;15.98;84.10;96573.97;1683790;84;21038;-82
2021/09/13 01:40:50;;;;;;;9.53;8.50;;;;;;;15.99;84.12;96570.84;1669376;84;21029;-83
2021/09/13 01:43:16;;;;;;;9.40;8.50;;;;;;;16.01;84.11;96576.67;1688287;84;20978;-83
2021/09/13 01:45:42;;;;;;;9.93;8.93;;;;;;;16.02;84.16;96574.34;1689276;84;21098;-82
2021/09/13 01:48:08;;;;;;;10.60;9.53;;;;;;;15.98;84.31;96563.48;1677237;84;21238;-83
2021/09/13 01:50:35;;;;;;;10.18;9.18;;;;;;;15.96;84.51;96568.64;1681442;84;21012;-83
2021/09/13 01:53:00;;;;;;;9.20;8.33;;;;;;;15.94;84.72;96566.72;1693742;84;21347;-82
2021/09/13 01:55:26;;;;;;;10.08;9.13;;;;;;;15.91;84.86;96566.13;1674460;84;21057;-83
2021/09/13 01:57:52;;;;;;;9.18;8.28;;;;;;;15.90;84.73;96563.72;1674157;84;21049;-83
2021/09/13 02:00:18;;;;;;;11.30;9.73;;;;;;;15.92;84.72;96565.62;1676247;84;21063;-82
2021/09/13 02:02:44;;;;;;;10.35;8.58;;;;;;;15.94;84.73;96568.02;1696528;84;21078;-82
2021/09/13 02:05:10;;;;;;;9.83;8.83;;;;;;;15.95;84.83;96566.53;1688949;84;21480;-82
2021/09/13 02:07:35;;;;;;;10.23;8.93;;;;;;;15.99;84.75;96574.77;1674116;85;21047;-83
2021/09/13 02:10:02;;;;;;;11.00;9.90;;;;;;;15.99;84.44;96569.02;1689140;84;21004;-82
2021/09/13 02:12:30;;;;;;;12.45;10.70;;;;;;;15.99;84.56;96571.64;1700197;84;21149;-83
2021/09/13 02:14:56;;;;;;;11.65;10.53;;;;;;;15.99;84.58;96575.57;1694218;84;21134;-82
2021/09/13 02:17:22;;;;;;;13.35;10.68;;;;;;;15.98;84.67;96570.55;1678831;84;21057;-83
2021/09/13 02:19:48;;;;;;;11.97;10.82;;;;;;;15.97;84.68;96574.18;1697791;84;21397;-83
2021/09/13 02:22:16;;;;;;;13.03;11.73;;;;;;;15.94;84.78;96571.45;1696689;84;21003;-82
2021/09/13 02:24:41;;;;;;;12.68;11.40;;;;;;;15.93;84.81;96572.97;1690502;84;21093;-83
2021/09/13 02:27:07;;;;;;;13.18;11.70;;;;;;;15.93;84.89;96571.16;1681402;84;21094;-83
2021/09/13 02:29:33;;;;;;;12.63;11.28;;;;;;;15.93;85.03;96577.70;1696760;84;21115;-83
2021/09/13 02:32:00;;;;;;;15.55;13.15;;;;;;;15.93;85.09;96576.39;1670367;84;21098;-83
2021/09/13 02:34:25;;;;;;;13.08;11.68;;;;;;;15.96;85.19;96573.89;1661046;85;21006;-83
2021/09/13 02:36:51;;;;;;;14.45;12.60;;;;;;;15.96;85.09;96571.27;1683555;84;21045;-83
2021/09/13 02:39:17;;;;;;;16.93;13.58;;;;;;;15.97;85.08;96576.30;1687731;84;21091;-83
2021/09/13 02:41:43;;;;;;;18.30;15.80;;;;;;;15.96;85.02;96572.06;1682186;84;21386;-83
2021/09/13 02:44:09;;;;;;;15.63;14.03;;;;;;;15.99;85.09;96572.95;1658621;85;21109;-83
2021/09/13 02:46:35;;;;;;;15.83;14.15;;;;;;;15.98;85.11;96573.97;1686219;84;20995;-83
2021/09/13 02:49:00;;;;;;;16.90;14.78;;;;;;;15.98;85.29;96574.48;1672424;84;21442;-83
2021/09/13 02:51:26;;;;;;;15.30;13.68;;;;;;;15.93;85.24;96575.08;1662944;85;21004;-83
2021/09/13 02:53:52;;;;;;;15.45;13.53;;;;;;;15.90;85.32;96572.89;1659077;84;21044;-83
2021/09/13 02:56:18;;;;;;;14.18;12.63;;;;;;;15.90;85.45;96571.07;1689383;83;21057;-83
2021/09/13 02:58:44;;;;;;;16.50;12.90;;;;;;;15.90;85.42;96579.44;1708015;84;21015;-83
2021/09/13 03:01:10;;;;;;;14.68;13.18;;;;;;;15.88;85.32;96575.72;1700326;84;21045;-82
2021/09/13 03:03:36;;;;;;;14.33;12.85;;;;;;;15.90;85.36;96579.44;1678804;84;21038;-82
2021/09/13 03:06:02;;;;;;;15.10;13.08;;;;;;;15.93;85.41;96580.83;1678215;84;21126;-82
2021/09/13 03:08:28;;;;;;;16.23;12.90;;;;;;;15.90;85.35;96580.75;1693925;84;21458;-82
2021/09/13 03:10:53;;;;;;;15.45;13.10;;;;;;;15.88;85.56;96583.58;1702866;84;21075;-82
2021/09/13 03:13:20;;;;;;;13.25;11.20;;;;;;;15.88;85.72;96580.16;1691164;84;21030;-83
2021/09/13 03:15:46;;;;;;;12.98;10.05;;;;;;;15.89;85.86;96587.00;1673352;85;21035;-83
2021/09/13 03:18:12;;;;;;;10.15;8.90;;;;;;;15.90;85.95;96581.55;1699615;84;21053;-83
2021/09/13 03:20:37;;;;;;;9.63;8.25;;;;;;;15.93;85.92;96581.64;1679592;84;21510;-83
2021/09/13 03:23:03;;;;;;;7.85;6.80;;;;;;;15.94;85.80;96579.31;1694876;84;21078;-82
2021/09/13 03:25:29;;;;;;;5.08;4.42;;;;;;;15.94;85.71;96581.13;1706023;84;21040;-83
2021/09/13 03:27:55;;;;;;;5.55;3.90;;;;;;;15.90;85.67;96577.63;1693912;84;21059;-83
2021/09/13 03:30:21;;;;;;;4.00;3.50;;;;;;;15.90;85.66;96585.48;1682869;84;21009;-83
2021/09/13 03:32:46;;;;;;;4.85;3.05;;;;;;;15.96;85.32;96581.75;1674881;84;21082;-83
2021/09/13 03:35:12;;;;;;;4.58;3.40;;;;;;;15.96;85.32;96581.75;1696923;84;21656;-83
2021/09/13 03:37:38;;;;;;;3.98;3.50;;;;;;;15.97;85.68;96580.22;1682594;84;21142;-82
2021/09/13 03:40:05;;;;;;;4.78;3.85;;;;;;;15.99;85.72;96579.50;1697214;84;21031;-83
2021/09/13 03:42:31;;;;;;;4.22;3.30;;;;;;;15.99;85.67;96580.81;1676677;84;21062;-82
2021/09/13 03:44:57;;;;;;;4.58;3.50;;;;;;;15.99;85.61;96569.53;1676387;84;21050;-83
2021/09/13 03:47:23;;;;;;;4.20;3.50;;;;;;;15.98;85.52;96574.48;1680263;84;21090;-83
2021/09/13 03:49:49;;;;;;;4.30;3.45;;;;;;;15.97;85.45;96575.49;1671664;84;21488;-83
2021/09/13 03:52:15;;;;;;;3.95;3.45;;;;;;;15.97;85.17;96578.11;1665228;84;21046;-83
2021/09/13 03:54:41;;;;;;;4.90;4.00;;;;;;;15.94;85.25;96573.27;1666222;84;20979;-82
2021/09/13 03:57:06;;;;;;;4.30;3.90;;;;;;;15.95;85.23;96583.56;1667665;84;21484;-82
2021/09/13 03:59:32;;;;;;;5.50;4.72;;;;;;;15.96;85.19;96588.30;1685038;84;21057;-83
2021/09/13 04:01:59;;;;;;;4.25;3.52;;;;;;;15.94;85.05;96581.93;1693517;84;21079;-83
2021/09/13 04:04:27;;;;;;;5.67;3.72;;;;;;;15.95;85.18;96590.12;1689120;84;21338;-83
2021/09/13 04:06:59;;;;;;;3.87;3.42;;;;;;;15.97;84.99;96582.84;1657447;85;21078;-83
2021/09/13 04:11:56;;;;;;;4.08;3.40;;;;;;;15.96;85.01;96589.61;1682857;84;21035;-83
2021/09/13 04:14:27;;;;;;;3.72;3.00;;;;;;;15.93;84.84;96592.63;1716447;83;20976;-83
2021/09/13 04:16:53;;;;;;;2.90;2.58;;;;;;;15.90;84.72;96593.85;1677774;84;21030;-83
2021/09/13 04:19:19;;;;;;;4.37;3.10;;;;;;;15.88;84.59;96594.58;1641842;84;21138;-83
2021/09/13 04:21:45;;;;;;;4.55;3.25;;;;;;;15.86;84.57;96603.16;1698735;84;21380;-83
2021/09/13 04:24:11;;;;;;;3.75;3.12;;;;;;;15.85;84.67;96601.55;1710258;83;21375;-83
2021/09/13 04:26:37;;;;;;;4.35;3.55;;;;;;;15.84;84.66;96602.56;1698714;83;21025;-82
2021/09/13 04:29:03;;;;;;;4.47;3.47;;;;;;;15.83;84.89;96605.69;1691415;84;21046;-82
2021/09/13 04:31:29;;;;;;;4.70;4.15;;;;;;;15.84;85.04;96607.80;1664679;84;21424;-83
2021/09/13 04:33:55;;;;;;;4.47;3.83;;;;;;;15.84;85.18;96605.98;1667438;84;21065;-82
2021/09/13 04:36:21;;;;;;;3.87;3.47;;;;;;;15.87;85.30;96603.45;1684312;84;21178;-82
2021/09/13 04:38:47;;;;;;;4.58;3.17;;;;;;;15.90;85.29;96613.50;1680782;84;21059;-83
2021/09/13 04:41:13;;;;;;;5.50;3.33;;;;;;;15.95;85.49;96611.59;1688989;84;21632;-82
2021/09/13 04:43:39;;;;;;;4.87;3.20;;;;;;;15.98;85.36;96606.72;1681381;84;21106;-82
2021/09/13 04:46:05;;;;;;;6.00;4.65;;;;;;;15.99;85.22;96609.64;1685411;84;21093;-83
2021/09/13 04:48:31;;;;;;;5.90;5.22;;;;;;;16.02;85.15;96609.22;1694360;84;21494;-82
2021/09/13 04:50:57;;;;;;;7.65;6.87;;;;;;;16.01;85.17;96598.44;1690086;84;21071;-82
2021/09/13 04:53:23;;;;;;;6.65;5.62;;;;;;;15.99;85.08;96607.02;1690803;84;21015;-83
2021/09/13 04:55:49;;;;;;;9.93;6.55;;;;;;;15.99;85.06;96609.64;1681056;84;21045;-83
2021/09/13 04:58:15;;;;;;;8.78;7.83;;;;;;;16.01;85.15;96615.47;1680459;84;21016;-83
2021/09/13 05:00:40;;;;;;;8.73;7.17;;;;;;;16.03;85.04;96616.57;1693918;84;21037;-82
2021/09/13 05:03:06;;;;;;;9.73;8.73;;;;;;;16.05;84.96;96614.54;1710578;83;21004;-82
2021/09/13 05:05:33;;;;;;;10.23;8.60;;;;;;;16.07;85.10;96613.82;1697042;84;21019;-82
2021/09/13 05:07:58;;;;;;;9.30;8.33;;;;;;;16.08;85.02;96610.98;1695368;84;21037;-83
2021/09/13 05:10:24;;;;;;;10.00;8.75;;;;;;;16.11;85.29;96611.91;1646040;85;21441;-83
2021/09/13 05:12:50;;;;;;;8.95;7.72;;;;;;;16.12;85.26;96609.58;1680858;84;21033;-83
2021/09/13 05:15:16;;;;;;;10.60;7.65;;;;;;;16.14;85.16;96614.09;1709558;83;22026;-83
2021/09/13 05:17:41;;;;;;;8.18;7.37;;;;;;;16.19;85.13;96610.83;1708962;83;21056;-82
2021/09/13 05:20:09;;;;;;;9.70;8.53;;;;;;;16.27;85.16;96615.84;1682480;83;21050;-82
2021/09/13 05:22:35;;;;;;;10.85;9.03;;;;;;;16.35;85.19;96610.83;1689889;83;20980;-83
2021/09/13 05:25:01;;;;;;;13.10;10.30;;;;;;;16.41;85.51;96609.97;1691680;83;21104;-83
2021/09/13 05:27:26;;;;;;;15.10;12.95;;;;;;;16.48;85.35;96613.37;1695045;83;21379;-82
2021/09/13 05:29:52;;;;;;;18.12;15.70;;;;;;;16.55;85.21;96611.48;1686888;84;21055;-83
2021/09/13 05:32:18;;;;;;;21.82;17.12;;;;;;;16.61;85.16;96617.21;1699764;83;20998;-83
2021/09/13 05:34:44;;;;;;;17.62;15.13;;;;;;;16.66;85.22;96614.74;1682184;83;20992;-83
2021/09/13 05:37:09;;;;;;;19.70;16.55;;;;;;;16.70;85.32;96606.77;1685252;84;21456;-83
2021/09/13 05:39:35;;;;;;;23.83;18.92;;;;;;;16.78;85.30;96608.33;1673692;84;21081;-83
2021/09/13 05:42:01;;;;;;;24.40;18.85;;;;;;;16.83;85.48;96609.79;1657510;84;21041;-82
2021/09/13 05:44:27;;;;;;;30.52;21.27;;;;;;;16.89;85.66;96614.67;1685019;84;20990;-82
2021/09/13 05:46:54;;;;;;;27.42;20.32;;;;;;;16.91;85.54;96617.37;1707340;83;21065;-83
2021/09/13 05:49:19;;;;;;;25.92;19.10;;;;;;;16.94;85.53;96624.04;1684578;85;21189;-83
2021/09/13 05:51:45;;;;;;;26.57;22.02;;;;;;;16.97;85.76;96628.86;1692249;84;21122;-82
2021/09/13 05:54:12;;;;;;;27.30;20.57;;;;;;;17.06;85.94;96632.80;1700623;84;21102;-82
2021/09/13 05:56:41;;;;;;;26.37;20.88;;;;;;;17.12;85.83;96631.95;1699782;83;21967;-82
2021/09/13 05:59:07;;;;;;;27.30;20.70;;;;;;;17.12;85.63;96634.57;1664399;84;21089;-83
2021/09/13 06:01:33;;;;;;;26.23;20.08;;;;;;;17.20;85.83;96632.96;1681790;84;21001;-82
2021/09/13 06:03:59;;;;;;;27.05;20.15;;;;;;;17.24;85.51;96639.37;1669633;84;21405;-82
2021/09/13 06:06:24;;;;;;;27.62;20.40;;;;;;;17.24;85.35;96628.88;1698937;83;21058;-82
2021/09/13 06:08:50;;;;;;;27.58;19.52;;;;;;;17.29;85.41;96630.88;1710051;83;21160;-83
2021/09/13 06:11:16;;;;;;;28.50;19.05;;;;;;;17.39;85.73;96632.47;1665476;85;21064;-83
2021/09/13 06:13:42;;;;;;;27.82;20.10;;;;;;;17.47;85.50;96634.82;1690506;84;21026;-83
2021/09/13 06:16:08;;;;;;;27.50;20.95;;;;;;;17.53;85.42;96640.50;1676597;84;21014;-83
2021/09/13 06:18:35;;;;;;;27.70;20.12;;;;;;;17.61;85.43;96631.54;1702150;84;21047;-82
2021/09/13 06:21:02;;;;;;;24.67;18.67;;;;;;;17.62;85.01;96633.14;1700359;84;21089;-83
2021/09/13 06:23:28;;;;;;;26.20;20.27;;;;;;;17.69;85.38;96642.58;1673066;84;21023;-83
2021/09/13 06:25:54;;;;;;;25.48;20.65;;;;;;;17.72;84.73;96641.84;1682578;85;21347;-83
2021/09/13 06:28:20;;;;;;;29.90;20.48;;;;;;;17.71;84.48;96639.72;1657360;84;20995;-83
2021/09/13 06:30:47;;;;;;;26.77;19.75;;;;;;;17.74;84.56;96641.13;1664625;85;21476;-82
2021/09/13 06:33:13;;;;;;;29.63;22.02;;;;;;;17.84;84.49;96640.88;1672148;84;21008;-83
2021/09/13 06:35:39;;;;;;;29.63;23.60;;;;;;;17.92;84.38;96641.91;1697119;84;21019;-83
2021/09/13 06:38:05;;;;;;;36.08;25.37;;;;;;;18.00;84.38;96647.36;1702333;84;21030;-83
2021/09/13 06:40:30;;;;;;;34.98;24.57;;;;;;;18.02;84.22;96651.08;1695464;84;21047;-83
2021/09/13 06:42:56;;;;;;;32.60;23.47;;;;;;;18.07;84.32;96648.09;1685051;84;21016;-82
2021/09/13 06:45:23;;;;;;;35.25;23.77;;;;;;;18.13;84.17;96646.39;1698166;84;21442;-82
2021/09/13 06:47:49;;;;;;;37.17;25.95;;;;;;;18.19;84.57;96644.98;1705413;84;21029;-83
2021/09/13 06:50:19;;;;;;;41.60;28.10;;;;;;;18.16;83.64;96650.70;1672923;84;21407;-83
2021/09/13 06:52:48;;;;;;;40.63;27.52;;;;;;;18.13;83.67;96653.77;1679406;84;21095;-83
2021/09/13 06:55:14;;;;;;;41.73;28.07;;;;;;;18.12;83.86;96658.75;1697219;84;21119;-82
2021/09/13 06:57:39;;;;;;;34.95;25.08;;;;;;;18.17;83.78;96650.98;1675161;85;21028;-83
2021/09/13 07:00:11;;;;;;;38.42;25.25;;;;;;;18.19;83.30;96658.64;1676572;84;20995;-83
2021/09/13 07:02:40;;;;;;;;;;;;;;;18.18;83.28;96655.73;1669333;84;21135;-83
2021/09/13 07:05:07;;;;;;;39.70;27.15;;;;;;;18.16;83.06;96657.78;1693923;84;20400;-83
2021/09/13 07:07:34;;;;;;;38.95;26.33;;;;;;;18.19;83.37;96663.39;1682262;84;21098;-82
2021/09/13 07:10:00;;;;;;;36.73;24.98;;;;;;;18.24;83.46;96660.92;1700756;84;21017;-83
2021/09/13 07:12:25;;;;;;;34.78;23.75;;;;;;;18.32;83.33;96657.67;1684796;84;21080;-83
2021/09/13 07:14:51;;;;;;;35.92;23.83;;;;;;;18.39;82.85;96653.94;1699461;84;21043;-83
2021/09/13 07:17:17;;;;;;;35.43;24.27;;;;;;;18.50;82.88;96651.03;1669341;85;21035;-83
2021/09/13 07:19:45;;;;;;;35.68;24.63;;;;;;;18.69;83.36;96658.38;1681313;84;21441;-82
2021/09/13 07:22:11;;;;;;;36.28;27.00;;;;;;;18.75;82.50;96656.17;1699863;84;21027;-83
2021/09/13 07:24:40;;;;;;;32.38;24.72;;;;;;;18.75;82.10;96658.80;1679816;85;21015;-83
2021/09/13 07:27:06;;;;;;;29.55;21.77;;;;;;;18.73;82.11;96658.23;1683255;83;21090;-82
2021/09/13 07:29:31;;;;;;;29.55;22.27;;;;;;;18.76;82.19;96653.30;1682271;83;20996;-82
2021/09/13 07:32:00;;;;;;;28.92;21.95;;;;;;;18.74;81.52;96666.41;1707853;83;21035;-82
2021/09/13 07:34:25;;;;;;;32.98;21.82;;;;;;;18.78;82.15;96670.19;1684382;83;21015;-83
2021/09/13 07:36:50;;;;;;;29.32;21.77;;;;;;;18.76;81.76;96676.20;1703051;83;21488;-83
2021/09/13 07:39:17;;;;;;;28.23;21.97;;;;;;;18.73;81.63;96678.77;1722808;83;21083;-83
2021/09/13 07:41:43;;;;;;;29.57;21.80;;;;;;;18.44;80.98;96640.91;1712725;83;21001;-82
2021/09/13 07:44:08;;;;;;;29.50;20.57;;;;;;;18.61;81.16;96680.53;1709075;83;21074;-83
2021/09/13 07:46:34;;;;;;;27.90;19.67;;;;;;;18.64;81.21;96678.80;1719468;83;21453;-83
2021/09/13 07:49:00;;;;;;;28.50;21.93;;;;;;;18.66;81.08;96684.63;1702683;83;21180;-83
2021/09/13 07:51:26;;;;;;;31.30;23.07;;;;;;;18.69;80.80;96688.64;1693471;83;20982;-82
2021/09/13 07:53:52;;;;;;;28.60;21.25;;;;;;;18.67;80.74;96689.38;1703025;83;21039;-83
2021/09/13 07:56:17;;;;;;;29.92;23.67;;;;;;;18.72;80.91;96687.70;1708982;83;20982;-83
2021/09/13 07:58:43;;;;;;;28.55;22.52;;;;;;;18.79;80.73;96691.53;1717674;83;21035;-82
2021/09/13 08:01:09;;;;;;;27.77;20.90;;;;;;;18.88;80.27;96696.78;1693176;83;21072;-83
2021/09/13 08:03:35;;;;;;;31.85;22.62;;;;;;;18.96;80.23;96695.63;1693616;83;21098;-83
2021/09/13 08:06:01;;;;;;;30.62;23.80;;;;;;;19.06;80.20;96689.30;1685873;84;21078;-83
2021/09/13 08:08:26;;;;;;;33.30;24.82;;;;;;;19.15;80.07;96692.67;1709275;83;21028;-83
2021/09/13 08:10:52;;;;;;;27.50;22.25;;;;;;;19.22;79.99;96698.36;1684819;84;21111;-83
2021/09/13 08:13:18;;;;;;;31.73;24.23;;;;;;;19.27;80.00;96695.32;1663469;85;21129;-83
2021/09/13 08:15:44;;;;;;;31.90;25.88;;;;;;;19.29;79.46;96699.04;1655460;84;21026;-83
2021/09/13 08:18:10;;;;;;;38.67;26.37;;;;;;;19.24;78.93;96702.88;1656994;84;21032;-83
2021/09/13 08:20:36;;;;;;;37.60;27.58;;;;;;;19.23;79.27;96703.40;1682049;84;21440;-82
2021/09/13 08:23:03;;;;;;;39.83;28.50;;;;;;;19.23;79.75;96706.03;1680823;84;21441;-83
2021/09/13 08:25:29;;;;;;;42.17;27.98;;;;;;;19.26;79.83;96708.72;1702855;83;21930;-82
2021/09/13 08:27:54;;;;;;;41.30;28.40;;;;;;;19.23;79.47;96715.25;1663017;84;20991;-83
2021/09/13 08:30:20;;;;;;;36.33;26.73;;;;;;;19.27;79.69;96709.81;1685880;84;21041;-82
2021/09/13 08:32:46;;;;;;;41.90;30.40;;;;;;;19.26;79.83;96711.36;1664958;84;21106;-83
2021/09/13 08:35:12;;;;;;;38.70;29.70;;;;;;;19.32;79.62;96713.06;1689844;84;21041;-83
2021/09/13 08:37:37;;;;;;;43.50;29.90;;;;;;;19.45;80.17;96719.44;1673914;84;21437;-83
2021/09/13 08:40:04;;;;;;;38.08;27.45;;;;;;;19.60;80.01;96711.90;1668477;85;21390;-83
2021/09/13 08:42:34;;;;;;;37.25;27.10;;;;;;;19.56;78.70;96708.13;1679587;84;21008;-83
2021/09/13 08:45:01;;;;;;;40.17;28.42;;;;;;;19.58;79.11;96715.80;1699989;83;21054;-82
2021/09/13 08:47:36;;;;;;;38.23;26.45;;;;;;;19.67;78.91;96715.20;1686189;84;21029;-83
2021/09/13 08:50:08;;;;;;;37.73;27.27;;;;;;;19.69;79.14;96717.13;1698147;84;21473;-82
2021/09/13 08:52:26;;;;;;;36.60;26.75;;;;;;;19.67;78.83;96716.52;1699168;84;21063;-83
2021/09/13 08:54:52;;;;;;;33.42;24.32;;;;;;;19.64;78.88;96716.98;1693212;84;21557;-83
2021/09/13 08:57:19;;;;;;;35.80;24.87;;;;;;;19.64;78.61;96715.67;1690025;84;21086;-82
2021/09/13 08:59:46;;;;;;;33.55;24.50;;;;;;;19.66;78.61;96714.13;1660961;84;21373;-82
2021/09/13 09:02:12;;;;;;;32.10;24.02;;;;;;;19.71;78.58;96713.73;1662288;84;21125;-82
2021/09/13 09:04:42;;;;;;;34.53;25.17;;;;;;;19.76;78.60;96712.52;1671268;84;21154;-83
2021/09/13 09:07:08;;;;;;;41.33;24.52;;;;;;;19.89;78.46;96717.27;1627165;85;21175;-83
2021/09/13 09:09:33;;;;;;;30.30;20.97;;;;;;;19.84;77.71;96716.62;1677585;84;21032;-83
2021/09/13 09:12:03;;;;;;;26.40;20.75;;;;;;;19.92;77.52;96715.47;1663966;84;21003;-83
2021/09/13 09:14:48;;;;;;;31.23;22.95;;;;;;;20.08;77.91;96718.19;1679499;84;21016;-83
2021/09/13 09:17:28;;;;;;;27.60;21.45;;;;;;;20.24;77.95;96712.69;1678809;84;21091;-83
2021/09/13 09:20:03;;;;;;;30.20;22.95;;;;;;;20.30;77.92;96716.22;1665682;84;21031;-83
2021/09/13 09:22:31;;;;;;;27.75;22.00;;;;;;;20.28;77.15;96715.66;1689087;84;21097;-83
2021/09/13 09:24:58;;;;;;;27.40;20.27;;;;;;;20.19;76.91;96712.61;1699506;84;21071;-83
2021/09/13 09:27:25;;;;;;;24.98;19.77;;;;;;;20.23;77.23;96711.09;1684024;84;21035;-83
2021/09/13 09:29:52;;;;;;;27.87;21.75;;;;;;;20.23;76.94;96713.73;1698085;84;21116;-83
2021/09/13 09:32:24;;;;;;;27.15;21.42;;;;;;;20.34;76.98;96715.54;1665939;84;21134;-82
2021/09/13 09:34:50;;;;;;;28.50;21.33;;;;;;;20.45;76.64;96717.86;1663275;84;21398;-83
2021/09/13 09:37:18;;;;;;;30.02;22.07;;;;;;;20.39;76.41;96717.47;1678492;85;21163;-83
2021/09/13 09:39:53;;;;;;;29.48;21.07;;;;;;;20.50;76.67;96711.87;1664500;84;20991;-83
2021/09/13 09:42:34;;;;;;;26.10;18.77;;;;;;;20.58;76.67;96719.42;1693697;83;21019;-83
2021/09/13 09:45:03;;;;;;;20.30;17.17;;;;;;;20.59;76.85;96722.34;1680024;84;21012;-83
2021/09/13 09:47:29;;;;;;;25.60;18.45;;;;;;;20.56;76.03;96719.66;1693210;84;21074;-83
2021/09/13 09:49:58;;;;;;;20.30;17.55;;;;;;;20.76;75.53;96719.73;1640267;84;21099;-83
2021/09/13 09:52:37;;;;;;;21.95;17.42;;;;;;;20.98;76.64;96711.39;1694407;84;21038;-83
2021/09/13 09:55:15;;;;;;;17.67;15.68;;;;;;;21.17;75.83;96708.02;1701319;84;21060;-83
2021/09/13 09:57:44;;;;;;;18.17;16.00;;;;;;;21.42;76.20;96706.30;1686974;84;21047;-83
2021/09/13 10:00:24;;;;;;;17.48;15.45;;;;;;;21.56;75.03;96701.75;1652192;85;21035;-83
2021/09/13 10:02:52;;;;;;;17.62;15.72;;;;;;;21.65;74.98;96697.38;1670889;84;21100;-82
2021/09/13 10:05:20;;;;;;;16.40;14.47;;;;;;;21.49;72.33;96700.33;1678999;84;21516;-82
2021/09/13 10:07:46;;;;;;;17.92;15.80;;;;;;;21.38;72.46;96700.70;1677876;84;21461;-83
2021/09/13 10:10:12;;;;;;;16.32;14.35;;;;;;;21.39;72.82;96696.21;1675128;84;21127;-83
2021/09/13 10:12:38;;;;;;;17.70;15.25;;;;;;;21.34;73.53;96702.23;1686593;84;21034;-83
2021/09/13 10:15:06;;;;;;;19.07;16.57;;;;;;;21.32;73.13;96695.59;1700902;84;21063;-83
2021/09/13 10:17:32;;;;;;;15.10;13.50;;;;;;;21.16;72.20;96701.13;1708251;84;21020;-82
2021/09/13 10:20:04;;;;;;;15.18;13.55;;;;;;;20.99;72.80;96705.09;1676059;84;21172;-83
2021/09/13 10:22:30;;;;;;;17.73;15.68;;;;;;;20.86;73.48;96705.39;1679582;84;21000;-83
2021/09/13 10:24:56;;;;;;;15.60;14.05;;;;;;;20.75;73.73;96701.77;1682074;83;21022;-83
2021/09/13 10:27:23;;;;;;;19.00;17.00;;;;;;;20.69;74.33;96706.70;1697192;84;21105;-83
2021/09/13 10:30:23;;;;;;;20.62;17.50;;;;;;;20.67;74.47;96707.45;1628760;85;21063;-82
2021/09/13 10:32:52;;;;;;;19.73;17.00;;;;;;;20.61;74.21;96699.95;1679805;85;21089;-83
2021/09/13 10:35:20;;;;;;;20.30;18.20;;;;;;;20.63;74.32;96704.47;1686436;84;21088;-83
2021/09/13 10:37:50;;;;;;;20.25;18.15;;;;;;;20.65;74.26;96710.30;1684353;84;21134;-83
2021/09/13 10:40:28;;;;;;;20.48;18.35;;;;;;;20.83;74.09;96700.59;1681365;84;21011;-83
2021/09/13 10:43:18;;;;;;;19.42;17.52;;;;;;;20.97;73.46;96692.09;1670500;84;21435;-83
2021/09/13 10:45:44;;;;;;;19.37;15.32;;;;;;;21.10;72.92;96692.30;1688929;84;21070;-83
2021/09/13 10:48:20;;;;;;;16.48;14.75;;;;;;;21.27;73.06;96684.40;1676144;84;21363;-83
2021/09/13 10:50:53;;;;;;;14.30;12.90;;;;;;;21.40;71.89;96695.16;1693477;84;21155;-83
2021/09/13 10:53:29;;;;;;;13.28;12.03;;;;;;;21.58;71.00;96689.08;1688587;84;21048;-83
2021/09/13 10:55:59;;;;;;;12.68;11.48;;;;;;;21.80;70.83;96684.33;1682515;84;21046;-82
2021/09/13 10:58:40;;;;;;;11.60;10.50;;;;;;;21.99;69.79;96686.97;1662171;85;21103;-83
2021/09/13 11:01:14;;;;;;;11.83;10.63;;;;;;;22.16;68.90;96691.70;1673109;84;21003;-83
2021/09/13 11:03:41;;;;;;;13.05;11.38;;;;;;;22.36;68.44;96681.86;1696913;84;21020;-83
2021/09/13 11:06:18;;;;;;;15.90;14.20;;;;;;;22.51;67.76;96687.83;1684196;84;20995;-82
2021/09/13 11:08:49;;;;;;;11.35;10.32;;;;;;;22.64;67.99;96696.71;1670242;84;21103;-83
2021/09/13 11:11:31;;;;;;;13.68;11.68;;;;;;;22.65;67.20;96690.36;1676305;84;21056;-83
2021/09/13 11:14:19;;;;;;;13.08;11.78;;;;;;;22.39;66.47;96693.80;1660844;84;21078;-83
2021/09/13 11:16:51;;;;;;;16.80;15.10;;;;;;;22.05;66.44;96693.15;1685866;84;21035;-83
2021/09/13 11:19:20;;;;;;;18.48;16.50;;;;;;;21.81;67.14;96695.22;1693838;84;21027;-83
2021/09/13 11:21:52;;;;;;;18.90;16.42;;;;;;;21.62;67.87;96691.23;1695117;84;21486;-83
2021/09/13 11:24:27;;;;;;;12.30;10.78;;;;;;;21.49;68.17;96693.20;1706644;84;21532;-83
2021/09/13 11:27:01;;;;;;;16.57;14.90;;;;;;;21.38;68.97;96695.41;1699269;84;21174;-83